createdAt,value
2019-04-14T00:01:15.394Z,8.40
2019-04-14T00:03:54.337Z,7.70
2019-04-14T00:06:31.390Z,8.53
2019-04-14T00:09:03.238Z,8.00
2019-04-14T00:11:41.526Z,8.17
2019-04-14T00:14:14.212Z,8.20
2019-04-14T00:16:44.915Z,8.17
2019-04-14T00:19:15.423Z,8.13
2019-04-14T00:21:47.614Z,8.17
2019-04-14T00:24:20.680Z,7.77
2019-04-14T00:26:51.744Z,7.90
2019-04-14T00:29:23.861Z,7.40
2019-04-14T00:31:56.962Z,8.03
2019-04-14T00:34:42.026Z,8.57
2019-04-14T00:37:31.487Z,8.20
2019-04-14T00:40:10.412Z,8.23
2019-04-14T00:43:07.739Z,8.10
2019-04-14T00:45:49.928Z,8.17
2019-04-14T00:48:22.508Z,8.27
2019-04-14T00:50:53.969Z,8.50
2019-04-14T00:53:25.974Z,9.03
2019-04-14T00:55:58.000Z,8.53
2019-04-14T00:58:29.901Z,8.50
2019-04-14T01:01:02.719Z,7.97
2019-04-14T01:03:35.265Z,8.53
2019-04-14T01:06:05.801Z,8.73
2019-04-14T01:08:40.221Z,9.10
2019-04-14T01:11:11.739Z,8.70
2019-04-14T01:13:44.538Z,8.37
2019-04-14T01:16:18.780Z,8.20
2019-04-14T01:18:49.419Z,8.10
2019-04-14T01:21:20.104Z,8.53
2019-04-14T01:23:54.955Z,9.07
2019-04-14T01:26:28.908Z,7.93
2019-04-14T01:28:59.610Z,9.37
2019-04-14T01:31:33.745Z,8.80
2019-04-14T01:34:06.344Z,8.33
2019-04-14T01:36:38.696Z,8.70
2019-04-14T01:39:11.061Z,7.90
2019-04-14T01:41:43.125Z,8.53
2019-04-14T01:44:13.916Z,9.07
2019-04-14T01:46:45.592Z,8.13
2019-04-14T01:49:18.596Z,8.60
2019-04-14T01:52:08.169Z,8.37
2019-04-14T01:54:58.271Z,8.33
2019-04-14T01:57:48.221Z,8.37
2019-04-14T02:00:42.706Z,8.53
2019-04-14T02:03:13.327Z,9.07
2019-04-14T02:05:47.494Z,9.13
2019-04-14T02:08:18.177Z,8.63
2019-04-14T02:10:49.945Z,8.57
2019-04-14T02:13:21.006Z,8.93
2019-04-14T02:15:57.389Z,8.40
2019-04-14T02:18:27.991Z,8.77
2019-04-14T02:20:59.885Z,8.47
2019-04-14T02:23:32.199Z,8.10
2019-04-14T02:26:05.156Z,9.40
2019-04-14T02:28:35.659Z,8.97
2019-04-14T02:31:24.291Z,9.33
2019-04-14T02:34:07.384Z,9.70
2019-04-14T02:39:33.828Z,8.90
2019-04-14T02:46:56.585Z,9.03
2019-04-14T02:49:41.182Z,9.43
2019-04-14T02:52:04.937Z,9.23
2019-04-14T02:54:46.666Z,8.67
2019-04-14T02:57:15.064Z,8.80
2019-04-14T02:59:43.181Z,9.67
2019-04-14T03:02:24.772Z,9.47
2019-04-14T03:04:54.419Z,9.10
2019-04-14T03:07:28.584Z,8.73
2019-04-14T03:10:12.602Z,9.03
2019-04-14T03:15:01.877Z,9.23
2019-04-14T03:17:47.716Z,9.03
2019-04-14T03:23:21.232Z,9.40
2019-04-14T03:26:04.963Z,8.73
2019-04-14T03:28:37.830Z,8.83
2019-04-14T03:36:59.744Z,9.17
2019-04-14T03:38:58.866Z,8.77
2019-04-14T03:41:30.046Z,9.33
2019-04-14T03:44:10.251Z,9.00
2019-04-14T03:46:45.073Z,9.10
2019-04-14T03:49:15.977Z,8.77
2019-04-14T03:54:19.110Z,9.43
2019-04-14T03:57:04.211Z,8.73
2019-04-14T03:59:36.831Z,8.73
2019-04-14T04:02:07.515Z,8.53
2019-04-14T04:04:38.676Z,8.37
2019-04-14T04:07:12.389Z,9.37
2019-04-14T04:09:58.376Z,8.97
2019-04-14T04:12:31.304Z,8.77
2019-04-14T04:15:02.050Z,8.53
2019-04-14T04:18:00.202Z,9.87
2019-04-14T04:20:41.312Z,9.20
2019-04-14T04:23:27.252Z,9.27
2019-04-14T04:26:06.181Z,8.00
2019-04-14T04:28:56.140Z,8.93
2019-04-14T04:31:50.428Z,9.57
2019-04-14T04:34:38.071Z,8.70
2019-04-14T04:37:14.845Z,8.73
2019-04-14T04:39:47.469Z,8.90
2019-04-14T04:42:18.324Z,8.77
2019-04-14T04:44:50.990Z,9.70
2019-04-14T04:47:23.227Z,8.53
2019-04-14T04:49:57.510Z,8.37
2019-04-14T04:52:28.182Z,8.27
2019-04-14T04:55:04.624Z,8.77
2019-04-14T04:57:35.216Z,8.87
2019-04-14T05:00:11.059Z,8.43
2019-04-14T05:02:42.062Z,7.97
2019-04-14T05:06:06.808Z,8.70
2019-04-14T05:08:41.216Z,8.40
2019-04-14T05:11:29.430Z,9.00
2019-04-14T05:14:02.558Z,9.30
2019-04-14T05:16:33.081Z,8.47
2019-04-14T05:19:16.199Z,7.90
2019-04-14T05:21:36.962Z,8.57
2019-04-14T05:24:11.420Z,8.90
2019-04-14T05:26:44.513Z,8.20
2019-04-14T05:29:16.671Z,8.33
2019-04-14T05:31:49.071Z,7.73
2019-04-14T05:34:19.695Z,7.87
2019-04-14T05:36:52.149Z,7.00
2019-04-14T05:39:22.764Z,7.53
2019-04-14T05:42:04.138Z,6.90
2019-04-14T05:44:27.651Z,7.80
2019-04-14T05:46:59.978Z,6.77
2019-04-14T05:49:39.964Z,7.93
2019-04-14T05:52:03.717Z,7.50
2019-04-14T05:54:36.027Z,7.33
2019-04-14T05:57:11.243Z,7.73
2019-04-14T05:59:44.038Z,7.17
2019-04-14T06:02:15.788Z,7.57
2019-04-14T06:04:50.329Z,7.80
2019-04-14T06:07:21.094Z,7.37
2019-04-14T06:09:51.589Z,8.13
2019-04-14T06:12:22.174Z,7.33
2019-04-14T06:14:52.777Z,7.23
2019-04-14T06:17:23.336Z,8.07
2019-04-14T06:19:54.307Z,6.43
2019-04-14T06:22:24.886Z,7.40
2019-04-14T06:24:55.397Z,8.00
2019-04-14T06:27:26.949Z,6.33
2019-04-14T06:30:03.240Z,6.63
2019-04-14T06:32:41.307Z,7.57
2019-04-14T06:35:27.539Z,7.17
2019-04-14T06:38:06.095Z,6.57
2019-04-14T06:40:41.169Z,6.70
2019-04-14T06:43:13.275Z,6.40
2019-04-14T06:45:43.847Z,7.30
2019-04-14T06:48:16.579Z,6.60
2019-04-14T06:50:47.192Z,6.43
2019-04-14T06:53:17.755Z,6.60
2019-04-14T06:55:56.241Z,5.93
2019-04-14T06:58:27.445Z,8.40
2019-04-14T07:00:57.911Z,7.57
2019-04-14T07:03:28.862Z,6.83
2019-04-14T07:06:00.201Z,6.67
2019-04-14T07:08:34.474Z,6.57
2019-04-14T07:11:04.947Z,6.63
2019-04-14T07:13:40.038Z,6.63
2019-04-14T07:16:10.522Z,6.30
2019-04-14T07:18:41.103Z,7.23
2019-04-14T07:21:14.315Z,5.67
2019-04-14T07:23:47.255Z,6.17
2019-04-14T07:26:19.083Z,5.70
2019-04-14T07:28:56.541Z,5.83
2019-04-14T07:31:43.239Z,5.53
2019-04-14T07:34:28.992Z,6.30
2019-04-14T07:37:22.090Z,6.00
2019-04-14T07:40:07.768Z,5.73
2019-04-14T07:42:51.021Z,5.53
2019-04-14T07:45:31.377Z,5.27
2019-04-14T07:48:06.943Z,5.80
2019-04-14T07:50:45.060Z,5.70
2019-04-14T07:53:35.315Z,6.40
2019-04-14T07:56:27.803Z,5.77
2019-04-14T07:59:13.977Z,5.60
2019-04-14T08:02:01.926Z,4.93
2019-04-14T08:04:36.846Z,5.60
2019-04-14T08:07:10.099Z,5.97
2019-04-14T08:09:41.188Z,5.67
2019-04-14T08:12:13.335Z,5.13
2019-04-14T08:14:43.895Z,5.80
2019-04-14T08:17:15.331Z,5.60
2019-04-14T08:19:45.865Z,5.43
2019-04-14T08:22:18.578Z,5.80
2019-04-14T08:24:50.322Z,5.60
2019-04-14T08:27:20.799Z,5.93
2019-04-14T08:29:51.841Z,5.60
2019-04-14T08:32:22.374Z,5.37
2019-04-14T08:34:53.226Z,5.70
2019-04-14T08:37:25.795Z,6.00
2019-04-14T08:39:56.299Z,5.37
2019-04-14T08:42:39.072Z,6.03
2019-04-14T08:45:19.346Z,5.97
2019-04-14T08:47:56.858Z,6.37
2019-04-14T08:50:52.809Z,6.30
2019-04-14T08:53:31.134Z,5.77
2019-04-14T08:56:20.619Z,5.90
2019-04-14T08:59:21.348Z,7.10
2019-04-14T09:02:26.187Z,6.70
2019-04-14T09:05:17.278Z,6.90
2019-04-14T09:08:00.382Z,7.47
2019-04-14T09:10:34.150Z,7.30
2019-04-14T09:13:06.202Z,7.33
2019-04-14T09:15:36.795Z,7.97
2019-04-14T09:18:09.790Z,7.53
2019-04-14T09:20:51.613Z,7.13
2019-04-14T09:23:14.381Z,7.40
2019-04-14T09:25:44.899Z,7.73
2019-04-14T09:28:17.003Z,7.80
2019-04-14T09:30:48.877Z,7.00
2019-04-14T09:33:20.171Z,7.67
2019-04-14T09:35:50.656Z,7.83
2019-04-14T09:38:21.803Z,6.90
2019-04-14T09:40:52.300Z,6.90
2019-04-14T09:43:22.804Z,6.67
2019-04-14T09:45:53.313Z,6.60
2019-04-14T09:48:23.932Z,7.20
2019-04-14T09:51:04.314Z,6.97
2019-04-14T09:53:26.720Z,6.57
2019-04-14T09:55:58.434Z,7.07
2019-04-14T09:58:30.033Z,6.80
2019-04-14T10:01:00.605Z,6.50
2019-04-14T10:03:31.088Z,5.97
2019-04-14T10:06:01.679Z,6.10
2019-04-14T10:08:32.182Z,6.23
2019-04-14T10:11:05.370Z,6.03
2019-04-14T10:13:37.461Z,6.10
2019-04-14T10:16:08.098Z,5.73
2019-04-14T10:18:43.022Z,5.67
2019-04-14T10:21:18.015Z,5.77
2019-04-14T10:23:48.699Z,5.93
2019-04-14T10:26:19.603Z,6.23
2019-04-14T10:28:50.836Z,5.80
2019-04-14T10:31:22.014Z,6.53
2019-04-14T10:33:52.664Z,5.97
2019-04-14T10:36:23.449Z,6.50
2019-04-14T10:38:53.938Z,6.60
2019-04-14T10:41:27.010Z,6.10
2019-04-14T10:43:58.318Z,6.57
2019-04-14T10:46:29.398Z,6.63
2019-04-14T10:49:04.464Z,6.30
2019-04-14T10:51:34.339Z,5.87
2019-04-14T10:54:04.964Z,6.63
2019-04-14T10:56:36.652Z,5.80
2019-04-14T10:59:10.273Z,5.67
2019-04-14T11:01:41.411Z,6.20
2019-04-14T11:04:13.365Z,6.00
2019-04-14T11:07:03.314Z,6.80
2019-04-14T11:09:33.902Z,6.60
2019-04-14T11:12:08.563Z,5.90
2019-04-14T11:14:39.193Z,6.27
2019-04-14T11:17:11.980Z,6.93
2019-04-14T11:19:42.475Z,5.90
2019-04-14T11:22:12.986Z,5.70
2019-04-14T11:24:44.596Z,5.23
2019-04-14T11:27:15.808Z,6.10
2019-04-14T11:29:47.395Z,5.80
2019-04-14T11:32:31.601Z,5.53
2019-04-14T11:35:17.352Z,5.10
2019-04-14T11:38:00.650Z,5.50
2019-04-14T11:40:35.202Z,5.30
2019-04-14T11:43:06.061Z,5.37
2019-04-14T11:45:36.571Z,5.77
2019-04-14T11:48:07.174Z,5.03
2019-04-14T11:50:37.682Z,5.20
2019-04-14T11:53:09.848Z,4.83
2019-04-14T11:55:42.541Z,5.47
2019-04-14T11:58:13.075Z,6.47
2019-04-14T12:01:01.343Z,5.30
2019-04-14T12:03:49.720Z,5.23
2019-04-14T12:06:33.180Z,5.10
2019-04-14T12:09:23.092Z,5.30
2019-04-14T12:11:54.844Z,5.60
2019-04-14T12:14:26.788Z,5.37
2019-04-14T12:16:59.067Z,5.43
2019-04-14T12:19:31.324Z,5.70
2019-04-14T12:22:08.527Z,6.10
2019-04-14T12:24:35.888Z,5.43
2019-04-14T12:27:08.317Z,5.93
2019-04-14T12:29:39.060Z,5.90
2019-04-14T12:32:11.362Z,6.20
2019-04-14T12:34:44.535Z,6.60
2019-04-14T12:37:15.023Z,6.30
2019-04-14T12:39:46.648Z,5.60
2019-04-14T12:42:37.928Z,6.80
2019-04-14T12:45:38.593Z,6.13
2019-04-14T12:48:29.190Z,6.00
2019-04-14T12:51:22.303Z,6.20
2019-04-14T12:53:53.488Z,6.03
2019-04-14T12:56:26.952Z,6.77
2019-04-14T12:59:16.389Z,6.80
2019-04-14T13:02:02.212Z,6.13
2019-04-14T13:04:33.467Z,6.90
2019-04-14T13:07:04.076Z,7.07
2019-04-14T13:09:34.645Z,6.80
2019-04-14T13:12:05.296Z,6.50
2019-04-14T13:14:35.953Z,6.80
2019-04-14T13:17:07.368Z,7.03
2019-04-14T13:19:37.892Z,6.80
2019-04-14T13:22:09.724Z,6.23
2019-04-14T13:24:40.228Z,6.20
2019-04-14T13:27:10.803Z,7.40
2019-04-14T13:29:41.367Z,7.00
2019-04-14T13:32:13.079Z,6.67
2019-04-14T13:34:43.747Z,6.87
2019-04-14T13:37:14.383Z,7.17
2019-04-14T13:39:44.865Z,6.80
2019-04-14T13:42:16.417Z,7.27
2019-04-14T13:44:46.966Z,8.03
2019-04-14T13:47:18.422Z,7.90
2019-04-14T13:49:48.905Z,6.97
2019-04-14T13:52:19.408Z,6.37
2019-04-14T13:54:49.894Z,7.23
2019-04-14T13:57:20.421Z,7.57
2019-04-14T13:59:51.548Z,12.37
2019-04-14T14:02:22.098Z,7.77
2019-04-14T14:04:52.666Z,9.87
2019-04-14T14:07:23.254Z,8.77
2019-04-14T14:09:56.932Z,8.27
2019-04-14T14:12:34.021Z,7.70
2019-04-14T14:15:24.027Z,8.07
2019-04-14T14:18:25.456Z,9.10
2019-04-14T14:21:07.696Z,11.70
2019-04-14T14:24:12.890Z,8.70
2019-04-14T14:26:45.202Z,8.93
2019-04-14T14:29:15.884Z,7.00
2019-04-14T14:31:48.758Z,8.07
2019-04-14T14:34:19.587Z,7.80
2019-04-14T14:36:51.503Z,9.90
2019-04-14T14:39:22.081Z,8.60
2019-04-14T14:41:52.607Z,9.03
2019-04-14T14:44:25.594Z,7.97
2019-04-14T14:47:04.417Z,9.40
2019-04-14T14:49:44.546Z,9.50
2019-04-14T14:52:17.804Z,8.37
2019-04-14T14:54:49.374Z,9.03
2019-04-14T14:57:20.039Z,9.70
2019-04-14T14:59:50.803Z,9.33
2019-04-14T15:02:21.835Z,8.37
2019-04-14T15:04:52.766Z,8.50
2019-04-14T15:07:25.937Z,7.87
2019-04-14T15:09:57.378Z,8.83
2019-04-14T15:12:29.609Z,8.93
2019-04-14T15:15:00.324Z,8.90
2019-04-14T15:17:33.046Z,9.73
2019-04-14T15:20:04.392Z,9.47
2019-04-14T15:22:34.948Z,9.90
2019-04-14T15:25:07.880Z,8.40
2019-04-14T15:27:39.462Z,9.37
2019-04-14T15:30:17.982Z,8.37
2019-04-14T15:32:48.850Z,7.93
2019-04-14T15:35:19.537Z,9.10
2019-04-14T15:37:50.152Z,11.43
2019-04-14T15:40:21.909Z,8.60
2019-04-14T15:42:52.709Z,11.43
2019-04-14T15:45:24.272Z,9.83
2019-04-14T15:47:58.189Z,9.07
2019-04-14T15:50:29.419Z,8.60
2019-04-14T15:53:02.701Z,8.43
2019-04-14T15:55:34.890Z,9.07
2019-04-14T15:58:29.552Z,9.20
2019-04-14T16:01:19.851Z,8.77
2019-04-14T16:04:10.416Z,8.80
2019-04-14T16:06:53.644Z,8.70
2019-04-14T16:09:50.551Z,8.80
2019-04-14T16:12:39.946Z,8.10
2019-04-14T16:15:29.678Z,8.20
2019-04-14T16:18:19.109Z,8.33
2019-04-14T16:20:51.529Z,8.27
2019-04-14T16:23:22.089Z,8.33
2019-04-14T16:26:25.627Z,8.63
2019-04-14T16:29:17.894Z,8.23
2019-04-14T16:32:12.241Z,7.67
2019-04-14T16:34:49.427Z,8.10
2019-04-14T16:37:20.030Z,7.30
2019-04-14T16:39:51.420Z,8.40
2019-04-14T16:42:23.364Z,7.30
2019-04-14T16:44:55.109Z,7.50
2019-04-14T16:47:25.968Z,8.83
2019-04-14T16:49:56.533Z,8.33
2019-04-14T16:52:31.768Z,7.93
2019-04-14T16:55:13.773Z,7.70
2019-04-14T16:58:21.759Z,8.60
2019-04-14T17:00:58.964Z,6.93
2019-04-14T17:03:33.755Z,7.00
2019-04-14T17:06:04.618Z,6.83
2019-04-14T17:08:35.304Z,6.70
2019-04-14T17:11:07.681Z,6.37
2019-04-14T17:13:42.503Z,6.37
2019-04-14T17:16:38.879Z,8.90
2019-04-14T17:19:22.292Z,5.93
2019-04-14T17:22:05.871Z,5.37
2019-04-14T17:25:06.603Z,5.10
2019-04-14T17:27:41.740Z,5.80
2019-04-14T17:30:56.461Z,4.40
2019-04-14T17:33:32.783Z,5.40
2019-04-14T17:36:28.082Z,4.90
2019-04-14T17:39:24.411Z,4.47
2019-04-14T17:42:08.653Z,5.07
2019-04-14T17:44:58.255Z,4.60
2019-04-14T17:47:56.816Z,4.27
2019-04-14T17:50:49.406Z,5.13
2019-04-14T17:53:31.424Z,5.23
2019-04-14T17:56:15.280Z,5.13
2019-04-14T17:59:01.929Z,5.33
2019-04-14T18:01:51.286Z,5.40
2019-04-14T18:04:29.593Z,5.50
2019-04-14T18:07:04.115Z,5.80
2019-04-14T18:09:50.305Z,5.23
2019-04-14T18:12:32.906Z,4.43
2019-04-14T18:15:25.323Z,5.03
2019-04-14T18:18:13.944Z,4.97
2019-04-14T18:20:47.545Z,5.83
2019-04-14T18:23:18.167Z,5.10
2019-04-14T18:25:48.528Z,4.80
2019-04-14T18:28:43.958Z,5.77
2019-04-14T18:31:21.356Z,5.07
2019-04-14T18:34:12.540Z,5.17
2019-04-14T18:36:57.389Z,5.13
2019-04-14T18:39:52.791Z,4.97
2019-04-14T18:42:39.491Z,5.07
2019-04-14T18:45:25.617Z,4.90
2019-04-14T18:48:10.731Z,4.97
2019-04-14T18:51:09.428Z,5.30
2019-04-14T18:53:48.431Z,5.37
2019-04-14T18:56:29.515Z,5.70
2019-04-14T18:59:13.161Z,5.07
2019-04-14T19:01:45.417Z,5.10
2019-04-14T19:04:15.889Z,5.23
2019-04-14T19:06:46.452Z,5.37
2019-04-14T19:09:17.335Z,4.80
2019-04-14T19:11:56.477Z,5.53
2019-04-14T19:14:29.989Z,4.87
2019-04-14T19:17:22.250Z,5.13
2019-04-14T19:20:01.528Z,5.93
2019-04-14T19:22:26.487Z,6.17
2019-04-14T19:25:07.512Z,5.30
2019-04-14T19:27:29.706Z,5.17
2019-04-14T19:30:00.143Z,5.30
2019-04-14T19:32:31.110Z,5.73
2019-04-14T19:35:01.929Z,5.83
2019-04-14T19:37:33.872Z,6.20
2019-04-14T19:40:06.975Z,5.53
2019-04-14T19:42:38.225Z,5.57
2019-04-14T19:45:09.649Z,6.00
2019-04-14T19:47:40.834Z,7.07
2019-04-14T19:50:12.781Z,5.37
2019-04-14T19:52:43.723Z,5.43
2019-04-14T19:55:20.570Z,5.57
2019-04-14T19:57:47.730Z,4.93
2019-04-14T20:00:19.728Z,5.00
2019-04-14T20:02:51.709Z,5.07
2019-04-14T20:05:22.514Z,4.70
2019-04-14T20:07:53.430Z,4.70
2019-04-14T20:10:27.467Z,5.00
2019-04-14T20:12:59.055Z,5.13
2019-04-14T20:15:34.346Z,4.60
2019-04-14T20:18:39.017Z,4.83
2019-04-14T20:21:40.982Z,5.13
2019-04-14T20:24:28.163Z,4.40
2019-04-14T20:27:27.015Z,4.80
2019-04-14T20:29:59.397Z,4.60
2019-04-14T20:32:32.564Z,4.70
2019-04-14T20:35:03.271Z,4.53
2019-04-14T20:37:33.744Z,4.40
2019-04-14T20:40:04.681Z,4.23
2019-04-14T20:42:35.210Z,4.43
2019-04-14T20:45:06.537Z,5.13
2019-04-14T20:47:36.893Z,4.23
2019-04-14T20:50:07.636Z,3.67
2019-04-14T20:52:38.044Z,3.50
2019-04-14T20:55:08.677Z,4.23
2019-04-14T20:57:39.054Z,3.20
2019-04-14T21:00:10.528Z,3.50
2019-04-14T21:03:03.034Z,3.00
2019-04-14T21:05:55.974Z,3.13
2019-04-14T21:09:04.093Z,2.93
2019-04-14T21:11:52.251Z,3.30
2019-04-14T21:14:41.655Z,3.37
2019-04-14T21:17:40.030Z,2.87
2019-04-14T21:20:38.430Z,2.70
2019-04-14T21:23:15.691Z,3.27
2019-04-14T21:26:02.737Z,2.80
2019-04-14T21:28:58.107Z,2.87
2019-04-14T21:31:32.154Z,2.53
2019-04-14T21:34:18.845Z,2.50
2019-04-14T21:37:06.830Z,2.83
2019-04-14T21:39:43.550Z,2.53
2019-04-14T21:42:14.899Z,2.87
2019-04-14T21:44:51.361Z,2.70
2019-04-14T21:47:21.831Z,2.83
2019-04-14T21:49:53.336Z,2.60
2019-04-14T21:52:37.913Z,2.80
2019-04-14T21:55:09.108Z,2.57
2019-04-14T21:57:58.481Z,2.57
2019-04-14T22:01:47.628Z,2.80
2019-04-14T22:04:38.650Z,2.37
2019-04-14T22:07:26.647Z,2.60
2019-04-14T22:10:02.667Z,2.67
2019-04-14T22:12:33.606Z,2.53
2019-04-14T22:15:04.055Z,2.80
2019-04-14T22:17:34.471Z,2.73
2019-04-14T22:20:04.938Z,2.70
2019-04-14T22:22:35.319Z,2.83
2019-04-14T22:25:05.736Z,2.27
2019-04-14T22:27:36.124Z,2.77
2019-04-14T22:30:09.777Z,2.67
2019-04-14T22:32:40.161Z,2.60
2019-04-14T22:35:10.559Z,2.50
2019-04-14T22:37:40.959Z,2.80
2019-04-14T22:40:13.022Z,2.83
2019-04-14T22:42:43.453Z,2.60
2019-04-14T22:45:14.170Z,2.83
2019-04-14T22:47:44.573Z,2.30
2019-04-14T22:50:14.959Z,2.47
2019-04-14T22:52:45.341Z,2.90
2019-04-14T22:55:15.809Z,2.80
2019-04-14T22:57:46.215Z,2.67
2019-04-14T23:00:36.435Z,2.63
2019-04-14T23:03:24.663Z,2.67
2019-04-14T23:06:03.464Z,2.70
2019-04-14T23:08:53.476Z,2.80
2019-04-14T23:11:54.653Z,2.53
2019-04-14T23:14:33.670Z,2.57
2019-04-14T23:17:17.522Z,2.83
2019-04-14T23:19:53.163Z,2.80
2019-04-14T23:22:31.894Z,2.80
2019-04-14T23:25:02.327Z,2.80
2019-04-14T23:27:32.718Z,2.50
2019-04-14T23:30:03.137Z,2.27
2019-04-14T23:32:33.586Z,2.93
2019-04-14T23:35:04.506Z,2.90
2019-04-14T23:37:34.932Z,2.50
2019-04-14T23:40:05.611Z,2.60
2019-04-14T23:42:36.025Z,2.40
2019-04-14T23:45:06.685Z,2.50
2019-04-14T23:47:37.087Z,2.43
2019-04-14T23:50:08.335Z,2.70
2019-04-14T23:52:38.776Z,2.37
2019-04-14T23:55:09.665Z,2.50
2019-04-14T23:57:40.253Z,2.73
